Glenwood City, WI (54013)

10:02 AM CDT on June 03, 2015 (GMT -0500)
KWIEMERA2 | | Change Station
CLOSE
Current Station
Personal Weather Station
Location: Emerald, WI
Elevation: 1197 ft
Nearby Weather Stations

Elev 1197 ft 45.10 °N, 92.26 °W | Updated 8 seconds ago

Overcast
Overcast
63.6 °F
Feels Like 63.6 °F
N
3.0
Wind Variable Wind from SE
Gusts 14.0 mph

Today
High -- | Low -- °F
--% Chance of Precip.
Yesterday
High -- | Low -- °F
Precip. -- in
5:24 AM 8:50 PM
Full, 99% visible
Pressure 29.88 in
Visibility 10.0 miles
Clouds Mostly Cloudy 3100 ft
Overcast 3700 ft
Dew Point 57 °F
Humidity 79%
Rainfall 0.00 in
Snow Depth Not available.
UV 2 out of 12
Pollen 5.60 out of 12
Air Quality Not available.
Flu Activity Sporadic
METAR KRNH 031455Z AUTO 17013KT 10SM BKN031 OVC037 18/13 A2988 RMK AO2 T01780127

More Conditions Fewer Conditions

Pressure 29.88 in
Visibility 10.0 miles
Clouds Mostly Cloudy 3100 ft
Overcast 3700 ft
Dew Point 57 °F
Humidity 79%
Rainfall 0.00 in
Snow Depth Not available.
UV 2 out of 12
Pollen 5.60 out of 12
Air Quality Not available.
Flu Activity Sporadic
METAR KRNH 031455Z AUTO 17013KT 10SM BKN031 OVC037 18/13 A2988 RMK AO2 T01780127

More Conditions Fewer Conditions

Nowcast | as of 9:39 am CDT on June 3, 2015

Widely scattered showers and thunderstorms will continue to develop over south central...and east central Minnesota...and far west central Wisconsin prior to noon. Heavy rainfall ...Scattered lightning and pea size hail may occur with a few of these storms. Rainfall amounts may approach one half inch with some of these storms as well.

×

10-Day Weather Forecast

×

Almanac

Astronomy

Jun. 03, 2015 Rise Set
Actual Time
Civil Twilight
Nautical Twilight
Astronomical Twilight
Moon
Length of Visible Light
Length of Day
Tomorrow will be .
, % of the Moon is Illuminated

Today's Extremes

State Highs State Lows

Community

WunderPhotos

Upload Photos

1,826,234 photos uploaded!

WunderBlogs® & News

Nearby

Air Quality

  Air Quality AQ Index Pollutant
Not available.

Snow Depth

Station Depth Elevation

Earthquake Activity

City Distance Mag. Time & Date
Minimum magnitude displayed is 2.5.

Coastal Water Temperatures

Place Temperature

Stations

Nearby Weather Stations

Station Location Temp. Windchill Dew Point Humidity Wind Precip. Elev Updated Type